Stickney, South Dakota
Current Conditions -  °F | °C
As of 6:53 AM on Saturday 25 Oct 2014 (Local Time) from KMHE Reporting Station
Haze Haze  
Wind Chill: 40°   Ceiling: Unl
Heat Index: 43°   Visibility: 6mi
Dew Point: 38°   Wind: 5mph
Humidity: 82%   Direction: 280°W
Pressure: 30.12"   Gusts: NA
Location:  43.59°N, 98.44°W
Report Text: KMHE 251153Z AUTO 28004KT 6SM HZ CLR 06/03 A3012 RMK AO2 SLP201 7//// T00610033 10111 20056 53009 $
Loading
Personal Weather Stations






























Interactive Weather Map New forecast layout! Learn more

10-Day Weather Forecast

Advertisements
Track Severe Weather on mobile